createdAt,value
2017-10-30T00:00:29.467Z,1018.02
2017-10-30T00:01:50.656Z,1018.02
2017-10-30T00:03:12.488Z,1018.03
2017-10-30T00:04:34.363Z,1018.06
2017-10-30T00:05:57.125Z,1018.06
2017-10-30T00:07:18.642Z,1018.09
2017-10-30T00:08:40.521Z,1018.16
2017-10-30T00:10:02.365Z,1018.14
2017-10-30T00:11:24.209Z,1018.16
2017-10-30T00:12:46.417Z,1018.13
2017-10-30T00:14:07.913Z,1018.14
2017-10-30T00:15:30.381Z,1018.2
2017-10-30T00:16:52.229Z,1018.23
2017-10-30T00:18:14.423Z,1018.28
2017-10-30T00:19:36.999Z,1018.23
2017-10-30T00:20:58.914Z,1018.34
2017-10-30T00:22:21.475Z,1018.33
2017-10-30T00:23:43.997Z,1018.34
2017-10-30T00:25:06.566Z,1018.32
2017-10-30T00:26:28.689Z,1018.34
2017-10-30T00:27:50.874Z,1018.37
2017-10-30T00:29:13.056Z,1018.34
2017-10-30T00:30:34.587Z,1018.36
2017-10-30T00:31:56.103Z,1018.35
2017-10-30T00:33:18.292Z,1018.37
2017-10-30T00:34:40.455Z,1018.39
2017-10-30T00:36:02.324Z,1018.4
2017-10-30T00:37:24.676Z,1018.44
2017-10-30T00:38:47.749Z,1018.51
2017-10-30T00:40:10.277Z,1018.47
2017-10-30T00:41:32.136Z,1018.47
2017-10-30T00:42:53.930Z,1018.49
2017-10-30T00:44:15.462Z,1018.47
2017-10-30T00:45:37.640Z,1018.44
2017-10-30T00:46:59.501Z,1018.45
2017-10-30T00:48:21.342Z,1018.46
2017-10-30T00:49:43.504Z,1018.43
2017-10-30T00:51:05.025Z,1018.47
2017-10-30T00:52:27.561Z,1018.51
2017-10-30T00:53:49.832Z,1018.49
2017-10-30T00:55:11.675Z,1018.53
2017-10-30T00:56:33.857Z,1018.56
2017-10-30T00:57:56.139Z,1018.57
2017-10-30T00:59:18.662Z,1018.59
2017-10-30T01:00:40.490Z,1018.63
2017-10-30T01:02:02.402Z,1018.63
2017-10-30T01:03:24.606Z,1018.66
2017-10-30T01:04:46.787Z,1018.62
2017-10-30T01:06:09.021Z,1018.63
2017-10-30T01:07:31.232Z,1018.59
2017-10-30T01:08:53.752Z,1018.48
2017-10-30T01:10:16.266Z,1018.52
2017-10-30T01:11:38.119Z,1018.46
2017-10-30T01:13:00.345Z,1018.57
2017-10-30T01:14:22.516Z,1018.57
2017-10-30T01:15:44.677Z,1018.62
2017-10-30T01:17:06.529Z,1018.62
2017-10-30T01:18:28.695Z,1018.64
2017-10-30T01:19:50.859Z,1018.69
2017-10-30T01:21:13.786Z,1018.66
2017-10-30T01:22:35.968Z,1018.67
2017-10-30T01:23:57.625Z,1018.67
2017-10-30T01:25:20.138Z,1018.7
2017-10-30T01:26:41.975Z,1018.65
2017-10-30T01:28:03.936Z,1018.69
2017-10-30T01:29:26.106Z,1018.65
2017-10-30T01:30:48.601Z,1018.69
2017-10-30T01:32:11.034Z,1018.74
2017-10-30T01:33:33.713Z,1018.8
2017-10-30T01:34:55.891Z,1018.98
2017-10-30T01:36:18.077Z,1018.95
2017-10-30T01:37:39.583Z,1019.11
2017-10-30T01:39:01.755Z,1019.23
2017-10-30T01:40:23.251Z,1019.11
2017-10-30T01:41:45.081Z,1018.91
2017-10-30T01:43:06.641Z,1018.89
2017-10-30T01:44:28.805Z,1018.93
2017-10-30T01:45:50.994Z,1018.95
2017-10-30T01:47:12.503Z,1018.94
2017-10-30T01:48:34.375Z,1018.9
2017-10-30T01:49:56.968Z,1018.94
2017-10-30T01:51:19.175Z,1018.9
2017-10-30T01:52:40.688Z,1018.89
2017-10-30T01:54:03.199Z,1018.91
2017-10-30T01:55:25.371Z,1018.85
2017-10-30T01:56:47.869Z,1018.83
2017-10-30T01:58:09.701Z,1018.85
2017-10-30T01:59:32.189Z,1018.89
2017-10-30T02:00:54.015Z,1018.87
2017-10-30T02:02:15.323Z,1018.91
2017-10-30T02:03:36.839Z,1018.91
2017-10-30T02:04:59.476Z,1018.91
2017-10-30T02:06:21.654Z,1018.96
2017-10-30T02:07:43.537Z,1018.98
2017-10-30T02:09:05.764Z,1019
2017-10-30T02:10:28.185Z,1019.01
2017-10-30T02:11:50.078Z,1019.08
2017-10-30T02:13:11.927Z,1019.07
2017-10-30T02:14:34.445Z,1019.03
2017-10-30T02:15:56.406Z,1019.1
2017-10-30T02:17:18.578Z,1019.1
2017-10-30T02:18:40.505Z,1019.12
2017-10-30T02:20:02.044Z,1019.17
2017-10-30T02:21:24.544Z,1019.13
2017-10-30T02:22:46.083Z,1019.2
2017-10-30T02:24:07.295Z,1019.16
2017-10-30T02:25:29.457Z,1019.14
2017-10-30T02:26:51.982Z,1019.18
2017-10-30T02:28:13.984Z,1019.21
2017-10-30T02:29:36.150Z,1019.21
2017-10-30T02:30:58.710Z,1019.18
2017-10-30T02:32:20.832Z,1019.15
2017-10-30T02:33:43.354Z,1019.17
2017-10-30T02:35:05.216Z,1019.19
2017-10-30T02:36:27.070Z,1019.18
2017-10-30T02:37:49.558Z,1019.23
2017-10-30T02:39:11.091Z,1019.19
2017-10-30T02:40:33.308Z,1019.21
2017-10-30T02:41:55.155Z,1019.21
2017-10-30T02:43:17.255Z,1019.16
2017-10-30T02:44:39.202Z,1019.24
2017-10-30T02:46:01.736Z,1019.24
2017-10-30T02:47:23.929Z,1019.29
2017-10-30T02:48:46.474Z,1019.31
2017-10-30T02:50:09.005Z,1019.37
2017-10-30T02:51:31.540Z,1019.36
2017-10-30T02:52:53.400Z,1019.46
2017-10-30T02:54:15.255Z,1019.47
2017-10-30T02:55:37.922Z,1019.51
2017-10-30T02:57:00.435Z,1019.59
2017-10-30T02:58:22.940Z,1019.66
2017-10-30T02:59:45.032Z,1019.66
2017-10-30T03:01:07.226Z,1019.73
2017-10-30T03:02:29.139Z,1019.7
2017-10-30T03:03:50.417Z,1019.69
2017-10-30T03:05:12.568Z,1019.71
2017-10-30T03:06:35.056Z,1019.76
2017-10-30T03:07:57.673Z,1019.66
2017-10-30T03:09:19.616Z,1019.65
2017-10-30T03:10:42.496Z,1019.62
2017-10-30T03:12:04.315Z,1019.56
2017-10-30T03:13:26.517Z,1019.64
2017-10-30T03:14:49.028Z,1019.61
2017-10-30T03:16:11.576Z,1019.62
2017-10-30T03:17:33.736Z,1019.63
2017-10-30T03:18:55.931Z,1019.71
2017-10-30T03:20:17.767Z,1019.68
2017-10-30T03:21:40.216Z,1019.72
2017-10-30T03:23:02.728Z,1019.75
2017-10-30T03:24:24.244Z,1019.8
2017-10-30T03:25:46.759Z,1019.78
2017-10-30T03:27:08.526Z,1019.79
2017-10-30T03:28:30.039Z,1019.81
2017-10-30T03:29:51.877Z,1019.82
2017-10-30T03:31:13.713Z,1019.88
2017-10-30T03:32:35.623Z,1019.88
2017-10-30T03:33:57.130Z,1019.9
2017-10-30T03:35:19.347Z,1019.9
2017-10-30T03:36:41.843Z,1019.91
2017-10-30T03:38:03.910Z,1019.95
2017-10-30T03:39:25.759Z,1019.99
2017-10-30T03:40:47.594Z,1020
2017-10-30T03:42:09.750Z,1020.07
2017-10-30T03:43:32.611Z,1020.22
2017-10-30T03:44:54.505Z,1020.3
2017-10-30T03:46:16.805Z,1020.43
2017-10-30T03:47:38.632Z,1020.48
2017-10-30T03:49:01.072Z,1020.44
2017-10-30T03:50:23.249Z,1020.46
2017-10-30T03:51:45.757Z,1020.51
2017-10-30T03:53:06.943Z,1020.5
2017-10-30T03:56:05.883Z,1020.47
2017-10-30T03:57:27.745Z,1020.48
2017-10-30T03:58:49.905Z,1020.36
2017-10-30T04:00:11.701Z,1020.41
2017-10-30T04:01:33.445Z,1020.39
2017-10-30T04:02:55.725Z,1020.38
2017-10-30T04:04:17.909Z,1020.39
2017-10-30T04:05:40.374Z,1020.38
2017-10-30T04:07:01.944Z,1020.43
2017-10-30T04:08:23.789Z,1020.45
2017-10-30T04:09:44.967Z,1020.5
2017-10-30T04:11:07.477Z,1020.53
2017-10-30T04:12:29.323Z,1020.57
2017-10-30T04:13:51.168Z,1020.63
2017-10-30T04:15:13.661Z,1020.6
2017-10-30T04:16:35.747Z,1020.58
2017-10-30T04:17:57.594Z,1020.64
2017-10-30T04:19:19.761Z,1020.59
2017-10-30T04:20:40.978Z,1020.64
2017-10-30T04:22:02.794Z,1020.74
2017-10-30T04:23:24.694Z,1020.75
2017-10-30T04:24:47.214Z,1020.78
2017-10-30T04:26:09.484Z,1020.76
2017-10-30T04:27:31.325Z,1020.76
2017-10-30T04:28:52.820Z,1020.74
2017-10-30T04:30:14.753Z,1020.73
2017-10-30T04:31:35.958Z,1020.79
2017-10-30T04:32:57.715Z,1020.76
2017-10-30T04:34:19.876Z,1020.79
2017-10-30T04:35:41.705Z,1020.76
2017-10-30T04:37:03.215Z,1020.79
2017-10-30T04:38:25.017Z,1020.78
2017-10-30T04:39:46.857Z,1020.81
2017-10-30T04:41:08.374Z,1020.84
2017-10-30T04:42:30.668Z,1020.8
2017-10-30T04:43:52.789Z,1020.85
2017-10-30T04:45:14.310Z,1020.87
2017-10-30T04:46:36.824Z,1020.87
2017-10-30T04:47:58.759Z,1020.87
2017-10-30T04:49:21.191Z,1020.87
2017-10-30T04:50:43.065Z,1020.92
2017-10-30T04:52:04.555Z,1020.94
2017-10-30T04:53:26.385Z,1020.9
2017-10-30T04:54:48.635Z,1020.87
2017-10-30T04:56:10.475Z,1020.89
2017-10-30T04:57:31.995Z,1020.93
2017-10-30T04:58:53.870Z,1020.92
2017-10-30T05:00:16.464Z,1020.93
2017-10-30T05:01:38.387Z,1020.95
2017-10-30T05:03:00.032Z,1020.95
2017-10-30T05:04:22.216Z,1020.92
2017-10-30T05:05:44.425Z,1020.9
2017-10-30T05:07:06.261Z,1020.92
2017-10-30T05:08:28.436Z,1020.96
2017-10-30T05:09:50.349Z,1020.95
2017-10-30T05:11:12.496Z,1020.99
2017-10-30T05:12:34.318Z,1021
2017-10-30T05:13:56.825Z,1021.07
2017-10-30T05:15:18.662Z,1021.03
2017-10-30T05:16:40.473Z,1021.08
2017-10-30T05:18:02.653Z,1021.1
2017-10-30T05:19:24.844Z,1021.07
2017-10-30T05:20:46.681Z,1021.12
2017-10-30T05:22:08.868Z,1021.14
2017-10-30T05:23:30.704Z,1021.16
2017-10-30T05:24:52.663Z,1021.18
2017-10-30T05:26:14.218Z,1021.17
2017-10-30T05:27:36.257Z,1021.21
2017-10-30T05:28:58.131Z,1021.23
2017-10-30T05:30:19.647Z,1021.25
2017-10-30T05:31:41.142Z,1021.2
2017-10-30T05:33:03.332Z,1021.24
2017-10-30T05:34:24.844Z,1021.26
2017-10-30T05:35:47.037Z,1021.25
2017-10-30T05:37:08.534Z,1021.27
2017-10-30T05:38:30.683Z,1021.3
2017-10-30T05:39:52.232Z,1021.35
2017-10-30T05:41:14.127Z,1021.4
2017-10-30T05:42:35.973Z,1021.4
2017-10-30T05:43:58.125Z,1021.38
2017-10-30T05:45:20.720Z,1021.3
2017-10-30T05:46:42.684Z,1021.32
2017-10-30T05:48:05.192Z,1021.34
2017-10-30T05:49:26.999Z,1021.39
2017-10-30T05:50:49.514Z,1021.4
2017-10-30T05:52:11.370Z,1021.43
2017-10-30T05:53:33.556Z,1021.48
2017-10-30T05:54:55.719Z,1021.51
2017-10-30T05:56:17.890Z,1021.53
2017-10-30T05:57:40.233Z,1021.51
2017-10-30T05:59:02.394Z,1021.53
2017-10-30T06:00:24.907Z,1021.57
2017-10-30T06:01:46.452Z,1021.62
2017-10-30T06:03:07.706Z,1021.61
2017-10-30T06:04:29.871Z,1021.63
2017-10-30T06:05:52.324Z,1021.58
2017-10-30T06:07:14.534Z,1021.55
2017-10-30T06:08:37.075Z,1021.59
2017-10-30T06:09:59.254Z,1021.6
2017-10-30T06:11:21.693Z,1021.63
2017-10-30T06:12:43.597Z,1021.61
2017-10-30T06:14:05.759Z,1021.65
2017-10-30T06:15:27.948Z,1021.65
2017-10-30T06:16:50.467Z,1021.7
2017-10-30T06:18:12.967Z,1021.73
2017-10-30T06:19:34.164Z,1021.7
2017-10-30T06:20:56.017Z,1021.74
2017-10-30T06:22:17.945Z,1021.83
2017-10-30T06:23:39.766Z,1021.89
2017-10-30T06:25:01.605Z,1021.93
2017-10-30T06:26:23.471Z,1021.94
2017-10-30T06:27:45.954Z,1021.97
2017-10-30T06:29:08.133Z,1021.95
2017-10-30T06:30:30.293Z,1021.97
2017-10-30T06:31:52.449Z,1021.98
2017-10-30T06:33:13.919Z,1021.97
2017-10-30T06:34:36.095Z,1021.99
2017-10-30T06:35:57.394Z,1022.02
2017-10-30T06:37:19.685Z,1022.03
2017-10-30T06:38:41.847Z,1022.09
2017-10-30T06:40:04.358Z,1022.08
2017-10-30T06:41:26.534Z,1022.09
2017-10-30T06:42:48.723Z,1022.1
2017-10-30T06:44:10.624Z,1022.21
2017-10-30T06:45:32.796Z,1022.21
2017-10-30T06:46:55.012Z,1022.19
2017-10-30T06:48:16.859Z,1022.22
2017-10-30T06:49:39.493Z,1022.26
2017-10-30T06:51:01.002Z,1022.24
2017-10-30T06:52:22.849Z,1022.22
2017-10-30T06:53:45.155Z,1022.31
2017-10-30T06:55:07.119Z,1022.34
2017-10-30T06:56:29.295Z,1022.36
2017-10-30T06:57:51.588Z,1022.42
2017-10-30T06:59:13.769Z,1022.42
2017-10-30T07:00:36.542Z,1022.42
2017-10-30T07:01:58.146Z,1022.43
2017-10-30T07:03:20.656Z,1022.47
2017-10-30T07:04:42.542Z,1022.47
2017-10-30T07:06:05.687Z,1022.5
2017-10-30T07:07:27.518Z,1022.5
2017-10-30T07:08:49.688Z,1022.54
2017-10-30T07:10:11.530Z,1022.63
2017-10-30T07:11:33.694Z,1022.59
2017-10-30T07:12:55.963Z,1022.61
2017-10-30T07:14:18.189Z,1022.6
2017-10-30T07:15:40.714Z,1022.68
2017-10-30T07:17:02.581Z,1022.69
2017-10-30T07:18:24.478Z,1022.7
2017-10-30T07:19:46.074Z,1022.66
2017-10-30T07:21:07.603Z,1022.75
2017-10-30T07:22:29.797Z,1022.77
2017-10-30T07:23:51.999Z,1022.76
2017-10-30T07:25:14.247Z,1022.76
2017-10-30T07:26:36.755Z,1022.76
2017-10-30T07:27:59.225Z,1022.8
2017-10-30T07:29:21.405Z,1022.8
2017-10-30T07:30:43.922Z,1022.79
2017-10-30T07:32:06.444Z,1022.83
2017-10-30T07:33:28.550Z,1022.84
2017-10-30T07:34:50.769Z,1022.89
2017-10-30T07:36:13.294Z,1022.91
2017-10-30T07:37:35.476Z,1022.94
2017-10-30T07:38:58.244Z,1022.98
2017-10-30T07:40:20.126Z,1022.98
2017-10-30T07:41:42.687Z,1023.03
2017-10-30T07:43:04.867Z,1023.06
2017-10-30T07:44:26.859Z,1023.1
2017-10-30T07:45:49.350Z,1023.07
2017-10-30T07:47:10.884Z,1023.14
2017-10-30T07:48:32.784Z,1023.15
2017-10-30T07:49:54.327Z,1023.22
2017-10-30T07:51:16.112Z,1023.23
2017-10-30T07:52:38.338Z,1023.26
2017-10-30T07:54:00.514Z,1023.3
2017-10-30T07:55:22.600Z,1023.29
2017-10-30T07:56:45.137Z,1023.36
2017-10-30T07:58:07.702Z,1023.44
2017-10-30T07:59:29.908Z,1023.47
2017-10-30T08:00:52.406Z,1023.49
2017-10-30T08:02:14.238Z,1023.48
2017-10-30T08:03:36.752Z,1023.44
2017-10-30T08:04:58.624Z,1023.45
2017-10-30T08:06:20.486Z,1023.45
2017-10-30T08:07:42.682Z,1023.4
2017-10-30T08:09:04.526Z,1023.39
2017-10-30T08:10:26.746Z,1023.39
2017-10-30T08:11:49.265Z,1023.41
2017-10-30T08:13:11.784Z,1023.41
2017-10-30T08:14:33.485Z,1023.41
2017-10-30T08:15:55.643Z,1023.43
2017-10-30T08:17:17.769Z,1023.44
2017-10-30T08:18:39.945Z,1023.43
2017-10-30T08:20:01.455Z,1023.48
2017-10-30T08:21:23.630Z,1023.43
2017-10-30T08:22:46.155Z,1023.47
2017-10-30T08:24:08.374Z,1023.48
2017-10-30T08:25:30.655Z,1023.51
2017-10-30T08:26:52.882Z,1023.49
2017-10-30T08:28:14.728Z,1023.43
2017-10-30T08:29:37.228Z,1023.46
2017-10-30T08:30:59.237Z,1023.49
2017-10-30T08:32:21.115Z,1023.5
2017-10-30T08:33:43.423Z,1023.5
2017-10-30T08:35:05.622Z,1023.5
2017-10-30T08:36:27.825Z,1023.47
2017-10-30T08:37:50.005Z,1023.53
2017-10-30T08:39:11.883Z,1023.54
2017-10-30T08:40:34.064Z,1023.55
2017-10-30T08:41:56.245Z,1023.62
2017-10-30T08:43:18.794Z,1023.6
2017-10-30T08:44:41.348Z,1023.6
2017-10-30T08:46:03.529Z,1023.57
2017-10-30T08:47:25.394Z,1023.59
2017-10-30T08:48:46.918Z,1023.55
2017-10-30T08:50:09.792Z,1023.6
2017-10-30T08:51:32.295Z,1023.57
2017-10-30T08:52:54.486Z,1023.58
2017-10-30T08:54:17.055Z,1023.62
2017-10-30T08:55:39.244Z,1023.69
2017-10-30T08:57:01.431Z,1023.68
2017-10-30T08:58:23.626Z,1023.7
2017-10-30T08:59:45.938Z,1023.73
2017-10-30T09:01:08.482Z,1023.76
2017-10-30T09:02:31.002Z,1023.8
2017-10-30T09:03:53.587Z,1023.82
2017-10-30T09:05:15.462Z,1023.9
2017-10-30T09:06:38.280Z,1023.89
2017-10-30T09:07:59.904Z,1023.92
2017-10-30T09:09:22.416Z,1023.89
2017-10-30T09:10:45.024Z,1023.95
2017-10-30T09:12:07.524Z,1023.92
2017-10-30T09:13:30.021Z,1023.96
2017-10-30T09:14:51.553Z,1023.97
2017-10-30T09:16:13.410Z,1023.97
2017-10-30T09:17:34.965Z,1024.01
2017-10-30T09:18:57.505Z,1023.98
2017-10-30T09:20:20.057Z,1024.03
2017-10-30T09:21:42.589Z,1024.05
2017-10-30T09:23:04.786Z,1024.05
2017-10-30T09:25:49.153Z,1024.11
2017-10-30T09:27:11.686Z,1024.08
2017-10-30T09:28:33.525Z,1024.04
2017-10-30T09:29:55.376Z,1024.05
2017-10-30T09:31:17.366Z,1024.07
2017-10-30T09:32:39.229Z,1024.09
2017-10-30T09:34:01.896Z,1024.13
2017-10-30T09:35:24.105Z,1024.09
2017-10-30T09:36:45.699Z,1024.11
2017-10-30T09:38:07.223Z,1024.11
2017-10-30T09:39:29.459Z,1024.13
2017-10-30T09:40:51.627Z,1024.14
2017-10-30T09:42:14.139Z,1024.14
2017-10-30T09:43:36.650Z,1024.13
2017-10-30T09:44:59.248Z,1024.18
2017-10-30T09:46:21.448Z,1024.2
2017-10-30T09:47:43.606Z,1024.29
2017-10-30T09:49:05.466Z,1024.31
2017-10-30T09:50:27.664Z,1024.32
2017-10-30T09:51:49.844Z,1024.38
2017-10-30T09:53:11.696Z,1024.42
2017-10-30T09:54:34.293Z,1024.39
2017-10-30T09:55:56.266Z,1024.33
2017-10-30T09:57:18.825Z,1024.31
2017-10-30T09:58:40.365Z,1024.3
2017-10-30T10:00:01.938Z,1024.28
2017-10-30T10:01:24.706Z,1024.29
2017-10-30T10:02:47.435Z,1024.29
2017-10-30T10:04:09.294Z,1024.34
2017-10-30T10:05:31.527Z,1024.36
2017-10-30T10:06:53.407Z,1024.39
2017-10-30T10:08:15.951Z,1024.39
2017-10-30T10:09:38.326Z,1024.43
2017-10-30T10:11:00.540Z,1024.44
2017-10-30T10:12:23.356Z,1024.41
2017-10-30T10:13:45.559Z,1024.49
2017-10-30T10:15:07.779Z,1024.49
2017-10-30T10:16:29.974Z,1024.49
2017-10-30T10:17:52.190Z,1024.53
2017-10-30T10:19:14.072Z,1024.52
2017-10-30T10:20:35.930Z,1024.56
2017-10-30T10:21:58.139Z,1024.54
2017-10-30T10:23:20.397Z,1024.6
2017-10-30T10:24:42.945Z,1024.59
2017-10-30T10:26:05.465Z,1024.63
2017-10-30T10:27:27.683Z,1024.62
2017-10-30T10:28:49.938Z,1024.67
2017-10-30T10:30:12.472Z,1024.71
2017-10-30T10:31:34.664Z,1024.72
2017-10-30T10:32:57.265Z,1024.73
2017-10-30T10:34:19.768Z,1024.75
2017-10-30T10:35:41.621Z,1024.71
2017-10-30T10:37:03.842Z,1024.75
2017-10-30T10:38:26.383Z,1024.71
2017-10-30T10:39:48.505Z,1024.81
2017-10-30T10:41:10.708Z,1024.76
2017-10-30T10:42:32.249Z,1024.78
2017-10-30T10:43:54.445Z,1024.77
2017-10-30T10:45:16.556Z,1024.77
2017-10-30T10:46:38.086Z,1024.77
2017-10-30T10:48:00.603Z,1024.71
2017-10-30T10:49:22.847Z,1024.72
2017-10-30T10:50:45.335Z,1024.71
2017-10-30T10:52:07.536Z,1024.64
2017-10-30T10:53:30.086Z,1024.68
2017-10-30T10:54:52.315Z,1024.62
2017-10-30T10:56:14.425Z,1024.66
2017-10-30T10:57:36.013Z,1024.69
2017-10-30T10:58:57.877Z,1024.75
2017-10-30T11:00:20.416Z,1024.77
2017-10-30T11:01:43.054Z,1024.8
2017-10-30T11:03:05.653Z,1024.81
2017-10-30T11:04:27.510Z,1024.78
2017-10-30T11:05:49.705Z,1024.8
2017-10-30T11:07:12.264Z,1024.82
2017-10-30T11:08:34.444Z,1024.73
2017-10-30T11:09:56.058Z,1024.78
2017-10-30T11:11:18.595Z,1024.76
2017-10-30T11:12:41.116Z,1024.8
2017-10-30T11:14:03.321Z,1024.76
2017-10-30T11:15:24.494Z,1024.75
2017-10-30T11:16:46.385Z,1024.77
2017-10-30T11:18:09.218Z,1024.7
2017-10-30T11:19:31.483Z,1024.66
2017-10-30T11:20:53.683Z,1024.7
2017-10-30T11:22:15.729Z,1024.68
2017-10-30T11:23:37.936Z,1024.66
2017-10-30T11:25:00.512Z,1024.63
2017-10-30T11:26:22.715Z,1024.63
2017-10-30T11:27:44.045Z,1024.61
2017-10-30T11:29:06.613Z,1024.64
2017-10-30T11:30:28.796Z,1024.61
2017-10-30T11:31:50.999Z,1024.63
2017-10-30T11:33:13.574Z,1024.61
2017-10-30T11:34:35.494Z,1024.76
2017-10-30T11:35:58.012Z,1024.71
2017-10-30T11:37:20.270Z,1024.81
2017-10-30T11:38:42.809Z,1024.74
2017-10-30T11:40:05.017Z,1024.76
2017-10-30T11:41:27.627Z,1024.76
2017-10-30T11:42:50.154Z,1024.72
2017-10-30T11:44:12.029Z,1024.71
2017-10-30T11:45:33.903Z,1024.73
2017-10-30T11:46:56.105Z,1024.74
2017-10-30T11:48:17.968Z,1024.78
2017-10-30T11:49:40.155Z,1024.84
2017-10-30T11:51:02.399Z,1024.86
2017-10-30T11:52:24.261Z,1024.87
2017-10-30T11:53:46.137Z,1024.84
2017-10-30T11:55:08.341Z,1024.92
2017-10-30T11:56:30.528Z,1024.88
2017-10-30T11:57:52.797Z,1024.81
2017-10-30T11:59:15.060Z,1024.76
2017-10-30T12:00:37.565Z,1024.8
2017-10-30T12:01:59.747Z,1024.89
2017-10-30T12:03:21.635Z,1024.87
2017-10-30T12:04:43.882Z,1024.96
2017-10-30T12:06:06.149Z,1025.01
2017-10-30T12:07:28.695Z,1025.1
2017-10-30T12:08:50.885Z,1025.1
2017-10-30T12:10:13.396Z,1025.1
2017-10-30T12:11:35.717Z,1025.11
2017-10-30T12:12:57.906Z,1025.12
2017-10-30T12:14:20.135Z,1025.16
2017-10-30T12:15:42.345Z,1025.24
2017-10-30T12:17:04.634Z,1025.15
2017-10-30T12:18:26.926Z,1025.11
2017-10-30T12:19:48.781Z,1025.05
2017-10-30T12:21:10.665Z,1025.09
2017-10-30T12:22:33.185Z,1025.04
2017-10-30T12:23:55.355Z,1025.03
2017-10-30T12:25:17.587Z,1025.05
2017-10-30T12:26:40.253Z,1025.04
2017-10-30T12:28:02.816Z,1025.04
2017-10-30T12:29:24.751Z,1025.02
2017-10-30T12:30:46.620Z,1025.06
2017-10-30T12:32:08.842Z,1025.11
2017-10-30T12:33:31.376Z,1025.05
2017-10-30T12:34:53.581Z,1025.02
2017-10-30T12:36:16.131Z,1024.96
2017-10-30T12:37:38.346Z,1025.02
2017-10-30T12:39:00.538Z,1025.06
2017-10-30T12:40:22.856Z,1025.06
2017-10-30T12:41:45.020Z,1025
2017-10-30T12:43:07.652Z,1024.95
2017-10-30T12:44:29.522Z,1025.01
2017-10-30T12:45:52.166Z,1025.03
2017-10-30T12:47:14.384Z,1025.1
2017-10-30T12:48:36.237Z,1025.12
2017-10-30T12:49:58.426Z,1025.13
2017-10-30T12:51:20.300Z,1025.12
2017-10-30T12:52:42.514Z,1025.09
2017-10-30T12:54:04.687Z,1025.07
2017-10-30T12:55:26.557Z,1025.12
2017-10-30T12:56:49.146Z,1025.12
2017-10-30T12:58:11.675Z,1025.06
2017-10-30T12:59:33.669Z,1025.11
2017-10-30T13:00:55.184Z,1025.12
2017-10-30T13:02:17.375Z,1025.18
2017-10-30T13:03:39.420Z,1025.16
2017-10-30T13:05:01.305Z,1025.16
2017-10-30T13:06:23.933Z,1025.14
2017-10-30T13:07:46.242Z,1025.23
2017-10-30T13:09:08.784Z,1025.23
2017-10-30T13:10:31.187Z,1025.25
2017-10-30T13:11:53.392Z,1025.19
2017-10-30T13:13:15.904Z,1025.32
2017-10-30T13:14:37.743Z,1025.31
2017-10-30T13:16:00.055Z,1025.52
2017-10-30T13:17:22.023Z,1025.72
2017-10-30T13:18:43.886Z,1025.74
2017-10-30T13:20:05.435Z,1025.62
2017-10-30T13:21:27.975Z,1025.57
2017-10-30T13:22:50.608Z,1025.48
2017-10-30T13:24:12.825Z,1025.49
2017-10-30T13:25:34.806Z,1025.52
2017-10-30T13:26:57.006Z,1025.48
2017-10-30T13:28:19.233Z,1025.48
2017-10-30T13:29:42.006Z,1025.43
2017-10-30T13:31:04.530Z,1025.45
2017-10-30T13:32:26.733Z,1025.48
2017-10-30T13:33:48.601Z,1025.47
2017-10-30T13:35:10.783Z,1025.44
2017-10-30T13:36:33.334Z,1025.44
2017-10-30T13:37:55.210Z,1025.44
2017-10-30T13:39:17.839Z,1025.43
2017-10-30T13:40:40.027Z,1025.44
2017-10-30T13:42:01.914Z,1025.4
2017-10-30T13:43:24.113Z,1025.45
2017-10-30T13:44:46.316Z,1025.46
2017-10-30T13:46:08.834Z,1025.42
2017-10-30T13:47:31.354Z,1025.36
2017-10-30T13:48:53.547Z,1025.37
2017-10-30T13:50:15.724Z,1025.36
2017-10-30T13:51:37.924Z,1025.43
2017-10-30T13:53:00.115Z,1025.47
2017-10-30T13:54:21.985Z,1025.52
2017-10-30T13:55:44.508Z,1025.47
2017-10-30T13:57:07.101Z,1025.51
2017-10-30T13:58:29.293Z,1025.52
2017-10-30T13:59:51.486Z,1025.53
2017-10-30T14:01:13.783Z,1025.51
2017-10-30T14:02:36.782Z,1025.54
2017-10-30T14:03:58.993Z,1025.56
2017-10-30T14:05:20.889Z,1025.57
2017-10-30T14:06:43.553Z,1025.54
2017-10-30T14:08:05.760Z,1025.56
2017-10-30T14:09:28.069Z,1025.56
2017-10-30T14:10:50.601Z,1025.56
2017-10-30T14:12:13.117Z,1025.53
2017-10-30T14:13:35.934Z,1025.56
2017-10-30T14:14:58.493Z,1025.54
2017-10-30T14:16:20.477Z,1025.55
2017-10-30T14:17:43.001Z,1025.59
2017-10-30T14:19:04.634Z,1025.59
2017-10-30T14:20:27.173Z,1025.57
2017-10-30T14:21:49.038Z,1025.59
2017-10-30T14:23:11.580Z,1025.61
2017-10-30T14:24:33.487Z,1025.62
2017-10-30T14:25:55.403Z,1025.57
2017-10-30T14:27:16.603Z,1025.64
2017-10-30T14:28:38.247Z,1025.64
2017-10-30T14:29:59.752Z,1025.61
2017-10-30T14:31:21.967Z,1025.62
2017-10-30T14:32:44.647Z,1025.57
2017-10-30T14:34:06.852Z,1025.55
2017-10-30T14:35:29.125Z,1025.63
2017-10-30T14:36:51.639Z,1025.62
2017-10-30T14:38:14.145Z,1025.65
2017-10-30T14:39:36.331Z,1025.67
2017-10-30T14:40:58.893Z,1025.64
2017-10-30T14:42:21.081Z,1025.66
2017-10-30T14:43:42.984Z,1025.63
2017-10-30T14:45:05.510Z,1025.65
2017-10-30T14:46:28.170Z,1025.61
2017-10-30T14:47:50.375Z,1025.58
2017-10-30T14:49:12.662Z,1025.52
2017-10-30T14:50:34.543Z,1025.48
2017-10-30T14:51:56.405Z,1025.52
2017-10-30T14:53:18.606Z,1025.49
2017-10-30T14:54:40.895Z,1025.49
2017-10-30T14:56:03.111Z,1025.52
2017-10-30T14:57:24.948Z,1025.57
2017-10-30T14:58:47.188Z,1025.57
2017-10-30T15:00:09.363Z,1025.59
2017-10-30T15:01:31.894Z,1025.63
2017-10-30T15:02:54.081Z,1025.68
2017-10-30T15:04:15.951Z,1025.65
2017-10-30T15:05:38.141Z,1025.67
2017-10-30T15:06:59.977Z,1025.63
2017-10-30T15:08:21.874Z,1025.59
2017-10-30T15:09:44.053Z,1025.64
2017-10-30T15:11:05.938Z,1025.59
2017-10-30T15:12:27.797Z,1025.64
2017-10-30T15:13:50.327Z,1025.65
2017-10-30T15:15:12.854Z,1025.68
2017-10-30T15:16:35.078Z,1025.67
2017-10-30T15:17:57.607Z,1025.67
2017-10-30T15:19:20.190Z,1025.69
2017-10-30T15:20:42.716Z,1025.7
2017-10-30T15:22:04.932Z,1025.69
2017-10-30T15:23:27.145Z,1025.72
2017-10-30T15:24:49.595Z,1025.73
2017-10-30T15:26:11.447Z,1025.77
2017-10-30T15:27:33.977Z,1025.71
2017-10-30T15:28:55.897Z,1025.73
2017-10-30T15:30:18.813Z,1025.8
2017-10-30T15:31:40.688Z,1025.81
2017-10-30T15:33:03.308Z,1025.82
2017-10-30T15:34:25.481Z,1025.78
2017-10-30T15:35:48.052Z,1025.78
2017-10-30T15:37:10.223Z,1025.72
2017-10-30T15:38:32.101Z,1025.7
2017-10-30T15:39:54.467Z,1025.63
2017-10-30T15:41:17.115Z,1025.64
2017-10-30T15:42:38.984Z,1025.63
2017-10-30T15:44:01.515Z,1025.64
2017-10-30T15:45:23.362Z,1025.67
2017-10-30T15:46:45.792Z,1025.66
2017-10-30T15:48:07.994Z,1025.67
2017-10-30T15:49:30.177Z,1025.65
2017-10-30T15:50:52.791Z,1025.71
2017-10-30T15:52:15.072Z,1025.64
2017-10-30T15:53:37.683Z,1025.64
2017-10-30T15:55:00.214Z,1025.66
2017-10-30T15:56:22.084Z,1025.67
2017-10-30T15:57:44.277Z,1025.69
2017-10-30T15:59:06.451Z,1025.69
2017-10-30T16:00:28.994Z,1025.68
2017-10-30T16:01:50.843Z,1025.66
2017-10-30T16:03:13.399Z,1025.69
2017-10-30T16:04:35.935Z,1025.68
2017-10-30T16:05:58.124Z,1025.7
2017-10-30T16:07:20.339Z,1025.72
2017-10-30T16:08:43.153Z,1025.8
2017-10-30T16:10:05.023Z,1025.8
2017-10-30T16:11:27.235Z,1025.8
2017-10-30T16:12:49.454Z,1025.8
2017-10-30T16:14:11.179Z,1025.81
2017-10-30T16:15:33.206Z,1025.83
2017-10-30T16:16:55.384Z,1025.86
2017-10-30T16:18:17.574Z,1025.87
2017-10-30T16:19:40.102Z,1025.88
2017-10-30T16:21:02.626Z,1025.89
2017-10-30T16:22:24.876Z,1025.9
2017-10-30T16:23:47.370Z,1025.9
2017-10-30T16:25:09.674Z,1025.89
2017-10-30T16:26:32.209Z,1025.89
2017-10-30T16:27:54.403Z,1025.9
2017-10-30T16:29:16.593Z,1025.9
2017-10-30T16:30:38.798Z,1025.92
2017-10-30T16:32:01.329Z,1025.87
2017-10-30T16:33:23.529Z,1025.9
2017-10-30T16:34:45.711Z,1025.96
2017-10-30T16:36:08.236Z,1025.97
2017-10-30T16:37:30.877Z,1025.98
2017-10-30T16:38:52.737Z,1026
2017-10-30T16:40:15.233Z,1026